Time;durP1;ratioP1;P1;durP2;ratioP2;P2;SDS_P1;SDS_P2;PMS_P1;PMS_P2;Temp;Humidity;BMP_temperature;BMP_pressure;BME280_temperature;BME280_humidity;BME280_pressure;Samples;Min_cycle;Max_cycle;Signal;HPM_P1;HPM_P2
2022/03/09 00:00:06;;;;;;;10.73;6.17;;;;;;;-6.77;45.04;102678.84;5092530;28;20039;-68
2022/03/09 00:02:31;;;;;;;7.18;5.20;;;;;;;-6.75;45.87;102687.47;5092056;28;20028;-66
2022/03/09 00:04:57;;;;;;;8.73;4.97;;;;;;;-6.70;45.12;102701.28;5091855;28;20121;-66
2022/03/09 00:07:22;;;;;;;7.90;5.63;;;;;;;-6.78;45.14;102708.22;5091804;28;20144;-69
2022/03/09 00:09:48;;;;;;;14.27;5.63;;;;;;;-6.89;45.89;102691.88;5091897;28;20056;-66
2022/03/09 00:12:13;;;;;;;6.93;4.50;;;;;;;-6.77;45.53;102720.31;5090597;28;20031;-65
2022/03/09 00:14:39;;;;;;;8.90;4.43;;;;;;;-6.75;45.27;102715.13;5091845;28;20502;-65
2022/03/09 00:17:04;;;;;;;9.70;4.90;;;;;;;-6.82;45.46;102693.56;5091678;28;20048;-65
2022/03/09 00:19:30;;;;;;;10.63;5.50;;;;;;;-6.69;44.51;102705.59;5092022;28;20456;-66
2022/03/09 00:21:55;;;;;;;6.97;5.23;;;;;;;-6.62;44.79;102709.91;5091954;28;20127;-67
2022/03/09 00:24:21;;;;;;;11.33;7.23;;;;;;;-6.72;44.53;102703.00;5092133;28;20031;-66
2022/03/09 00:26:47;;;;;;;9.70;5.47;;;;;;;-6.61;44.91;102729.78;5092121;28;20016;-69
2022/03/09 00:29:12;;;;;;;8.80;4.97;;;;;;;-6.60;44.64;102728.91;5092080;28;20020;-66
2022/03/09 00:31:38;;;;;;;8.93;4.53;;;;;;;-6.72;45.37;102723.75;5091565;28;20036;-66
2022/03/09 00:34:04;;;;;;;6.20;4.63;;;;;;;-6.75;44.96;102723.75;5090285;28;20024;-65
2022/03/09 00:36:29;;;;;;;9.60;4.73;;;;;;;-6.76;44.61;102721.16;5090087;28;20035;-66
2022/03/09 00:38:56;;;;;;;7.47;4.50;;;;;;;-6.70;45.45;102732.38;5091666;28;20039;-68
2022/03/09 00:41:22;;;;;;;9.93;4.88;;;;;;;-6.71;44.96;102729.78;5090386;28;20067;-63
2022/03/09 00:43:47;;;;;;;8.50;4.70;;;;;;;-6.71;45.12;102728.06;5091914;28;20051;-67
2022/03/09 00:46:13;;;;;;;10.23;4.33;;;;;;;-6.78;44.98;102722.91;5091683;28;20745;-67
2022/03/09 00:48:39;;;;;;;13.53;5.97;;;;;;;-6.71;45.50;102741.00;5091894;28;20027;-66
2022/03/09 00:51:06;;;;;;;7.53;4.35;;;;;;;-6.77;45.05;102730.69;5091717;28;20748;-66
2022/03/09 00:53:32;;;;;;;8.10;5.55;;;;;;;-6.83;44.17;102725.53;5090461;28;20035;-66
2022/03/09 00:55:57;;;;;;;9.43;5.60;;;;;;;-6.85;45.87;102711.72;5090455;28;20028;-65
2022/03/09 00:58:23;;;;;;;9.93;5.60;;;;;;;-6.82;46.12;102722.06;5091563;28;20044;-67
2022/03/09 01:00:48;;;;;;;6.03;5.30;;;;;;;-6.74;46.44;102728.06;5091695;28;20036;-67
2022/03/09 01:03:14;;;;;;;14.17;4.93;;;;;;;-6.82;46.28;102722.06;5091262;28;20069;-66
2022/03/09 01:05:40;;;;;;;14.70;7.82;;;;;;;-6.91;46.59;102712.59;5091211;28;20031;-66
2022/03/09 01:08:06;;;;;;;9.47;5.23;;;;;;;-6.89;46.68;102738.50;5091518;28;20348;-67
2022/03/09 01:10:31;;;;;;;12.90;5.50;;;;;;;-6.98;47.35;102733.31;5091523;28;20024;-66
2022/03/09 01:12:57;;;;;;;17.13;8.47;;;;;;;-7.01;47.43;102734.19;5091306;28;20486;-65
2022/03/09 01:15:23;;;;;;;9.43;5.73;;;;;;;-7.07;47.70;102722.97;5091310;28;20244;-69
2022/03/09 01:17:49;;;;;;;12.98;6.15;;;;;;;-7.05;47.57;102734.19;5091307;28;20044;-67
2022/03/09 01:20:14;;;;;;;9.17;5.63;;;;;;;-7.13;46.92;102728.16;5091501;28;20043;-65
2022/03/09 01:22:40;;;;;;;11.33;6.30;;;;;;;-7.10;47.93;102725.56;5090234;28;20043;-64
2022/03/09 01:25:06;;;;;;;9.15;6.95;;;;;;;-7.06;47.18;102727.28;5095265;28;20031;-67
2022/03/09 01:27:33;;;;;;;9.57;5.43;;;;;;;-6.94;47.22;102745.38;5095357;28;20113;-65
2022/03/09 01:29:58;;;;;;;8.63;5.93;;;;;;;-7.03;47.89;102719.50;5096565;28;20509;-68
2022/03/09 01:32:24;;;;;;;8.63;5.17;;;;;;;-7.21;47.94;102682.44;5095473;28;20036;-66
2022/03/09 01:34:50;;;;;;;9.20;5.50;;;;;;;-6.84;47.06;102728.13;5095248;28;20463;-67
2022/03/09 01:37:16;;;;;;;12.00;6.37;;;;;;;-6.93;47.29;102729.88;5094409;28;20367;-67
2022/03/09 01:39:41;;;;;;;11.33;5.27;;;;;;;-7.26;47.09;102686.75;5094839;28;20487;-68
2022/03/09 01:42:07;;;;;;;8.17;5.20;;;;;;;-7.06;46.72;102711.75;5094747;28;20035;-67
2022/03/09 01:44:32;;;;;;;8.45;5.43;;;;;;;-7.04;47.39;102726.41;5094594;28;20039;-67
2022/03/09 01:46:58;;;;;;;11.00;5.73;;;;;;;-7.09;47.48;102732.47;5093329;28;20039;-66
2022/03/09 01:49:24;;;;;;;12.40;6.30;;;;;;;-7.13;47.79;102728.16;5094410;28;20024;-68
2022/03/09 01:51:53;;;;;;;10.32;6.00;;;;;;;-7.12;48.12;102737.66;5094364;28;20020;-67
2022/03/09 01:54:19;;;;;;;9.77;5.55;;;;;;;-7.05;47.29;102744.56;5094744;28;20104;-66
2022/03/09 01:56:45;;;;;;;8.73;4.83;;;;;;;-7.02;47.85;102747.13;5094445;28;20410;-67
2022/03/09 01:59:14;;;;;;;14.73;6.38;;;;;;;-7.12;48.37;102740.25;5094425;28;20435;-67
2022/03/09 02:01:41;;;;;;;12.40;5.43;;;;;;;-7.08;48.66;102752.31;5094389;28;20024;-64
2022/03/09 02:04:07;;;;;;;11.32;5.75;;;;;;;-7.05;47.70;102762.69;5092718;28;20024;-67
2022/03/09 02:06:36;;;;;;;11.63;7.20;;;;;;;-7.14;48.41;102748.03;5094458;28;20044;-68
2022/03/09 02:11:50;;;;;;;11.38;5.82;;;;;;;-7.18;48.41;102759.25;5094057;28;20348;-67
2022/03/09 02:14:33;;;;;;;11.18;5.13;;;;;;;-7.19;48.69;102758.38;5093924;28;20055;-68
2022/03/09 02:17:02;;;;;;;8.93;5.07;;;;;;;-7.48;48.27;102703.19;5094173;28;20048;-68
2022/03/09 02:19:28;;;;;;;12.35;5.55;;;;;;;-7.15;48.15;102759.25;5094127;28;20040;-66
2022/03/09 02:22:04;;;;;;;7.30;5.80;;;;;;;-6.99;48.26;102760.94;5093792;28;20024;-68
2022/03/09 02:24:29;;;;;;;9.05;5.70;;;;;;;-7.31;49.39;102704.00;5094156;28;20031;-68
2022/03/09 02:26:55;;;;;;;11.60;7.17;;;;;;;-7.07;48.23;102751.47;5093801;28;20032;-64
2022/03/09 02:29:20;;;;;;;16.27;7.47;;;;;;;-6.95;48.04;102774.75;5093421;28;20040;-67
2022/03/09 02:31:46;;;;;;;12.17;6.10;;;;;;;-7.20;48.27;102746.31;5094149;28;20198;-67
2022/03/09 02:34:11;;;;;;;15.43;5.77;;;;;;;-7.25;47.96;102742.84;5094046;28;20035;-67
2022/03/09 02:36:37;;;;;;;11.37;6.30;;;;;;;-7.20;47.78;102772.19;5093704;28;20516;-66
2022/03/09 02:39:03;;;;;;;10.27;5.57;;;;;;;-7.27;48.66;102769.59;5093706;28;20039;-65
2022/03/09 02:41:33;;;;;;;14.43;6.27;;;;;;;-7.28;48.56;102766.13;5093478;28;20028;-67
2022/03/09 02:44:03;;;;;;;10.00;6.25;;;;;;;-7.15;48.21;102776.50;5094042;28;20031;-68
2022/03/09 02:46:28;;;;;;;10.45;5.15;;;;;;;-7.25;48.59;102765.28;5094295;28;20502;-68
2022/03/09 02:48:54;;;;;;;10.07;5.27;;;;;;;-7.16;48.24;102778.25;5093590;28;20043;-69
2022/03/09 02:51:20;;;;;;;14.53;7.40;;;;;;;-7.18;48.62;102783.41;5093450;28;20336;-67
2022/03/09 02:53:46;;;;;;;13.03;5.10;;;;;;;-7.12;48.93;102794.63;5093343;28;20020;-67
2022/03/09 02:56:11;;;;;;;13.97;5.70;;;;;;;-7.20;48.76;102781.69;5093064;28;20114;-67
2022/03/09 02:58:36;;;;;;;42.73;7.60;;;;;;;-7.26;48.86;102786.84;5093301;28;20082;-68
2022/03/09 03:01:03;;;;;;;11.17;6.10;;;;;;;-7.34;49.38;102779.09;5093199;28;20115;-65
2022/03/09 03:03:28;;;;;;;13.70;6.82;;;;;;;-7.35;50.31;102782.53;5093469;28;20347;-69
2022/03/09 03:05:54;;;;;;;9.23;5.87;;;;;;;-7.50;49.37;102765.28;5093510;28;20035;-66
2022/03/09 03:08:20;;;;;;;13.23;7.05;;;;;;;-7.47;49.39;102781.69;5093468;28;20040;-68
2022/03/09 03:10:45;;;;;;;8.47;5.67;;;;;;;-7.56;48.85;102767.84;5093043;28;20549;-67
2022/03/09 03:13:11;;;;;;;14.93;6.37;;;;;;;-7.57;48.36;102776.47;5092896;28;20463;-66
2022/03/09 03:15:36;;;;;;;12.33;5.47;;;;;;;-7.58;49.31;102784.25;5093016;28;20368;-68
2022/03/09 03:18:04;;;;;;;12.40;4.90;;;;;;;-7.43;48.82;102804.97;5093035;28;20073;-68
2022/03/09 03:20:29;;;;;;;9.80;6.28;;;;;;;-7.57;48.77;102783.38;5092858;28;20036;-67
2022/03/09 03:22:55;;;;;;;12.60;7.33;;;;;;;-7.40;48.48;102797.22;5092961;28;20031;-66
2022/03/09 03:25:21;;;;;;;12.73;5.83;;;;;;;-7.28;48.64;102807.56;5092822;28;20122;-66
2022/03/09 03:27:46;;;;;;;13.80;5.30;;;;;;;-7.39;48.05;102805.84;5091922;28;20055;-67
2022/03/09 03:30:12;;;;;;;11.13;5.37;;;;;;;-7.35;48.87;102828.28;5093009;28;20020;-66
2022/03/09 03:32:37;;;;;;;12.47;6.27;;;;;;;-7.63;49.48;102783.38;5092933;28;20103;-69
2022/03/09 03:35:03;;;;;;;11.83;5.90;;;;;;;-7.60;49.38;102801.50;5092922;28;20379;-68
2022/03/09 03:37:29;;;;;;;16.02;7.20;;;;;;;-7.56;48.80;102818.75;5092667;28;20410;-69
2022/03/09 03:39:55;;;;;;;13.03;7.53;;;;;;;-7.75;48.39;102806.66;5090866;28;20119;-66
2022/03/09 03:42:21;;;;;;;12.68;7.15;;;;;;;-7.63;48.91;102845.47;5092582;28;20031;-68
2022/03/09 03:44:46;;;;;;;12.37;8.20;;;;;;;-7.82;49.13;102813.50;5092962;28;20032;-69
2022/03/09 03:47:12;;;;;;;18.63;7.53;;;;;;;-7.94;48.96;102783.31;5092193;28;20111;-67
2022/03/09 03:49:37;;;;;;;12.97;7.53;;;;;;;-7.74;49.48;102804.06;5099178;28;20055;-71
2022/03/09 03:52:03;;;;;;;14.03;8.80;;;;;;;-7.37;48.93;102848.97;5112653;28;20379;-69
2022/03/09 03:54:29;;;;;;;14.10;6.13;;;;;;;-7.24;49.35;102858.47;5112471;28;20563;-66
2022/03/09 03:56:54;;;;;;;25.13;7.60;;;;;;;-7.29;49.51;102865.38;5108722;28;20159;-67
2022/03/09 03:59:19;;;;;;;11.90;6.23;;;;;;;-7.37;49.54;102867.09;5104649;28;20081;-68
2022/03/09 04:01:45;;;;;;;15.80;6.47;;;;;;;-7.26;49.94;102869.69;5093156;28;20024;-73
2022/03/09 04:04:11;;;;;;;14.43;7.23;;;;;;;-7.26;49.42;102867.97;5091404;28;20123;-72
2022/03/09 04:06:36;;;;;;;10.70;6.37;;;;;;;-7.50;49.49;102844.66;5092594;28;20065;-70
2022/03/09 04:09:02;;;;;;;16.87;8.33;;;;;;;-7.46;49.12;102861.91;5091384;28;20032;-71
2022/03/09 04:11:28;;;;;;;17.73;6.60;;;;;;;-7.68;48.65;102857.53;5092191;28;20035;-70
2022/03/09 04:13:53;;;;;;;18.47;7.77;;;;;;;-7.54;49.76;102884.31;5092559;28;20525;-70
2022/03/09 04:16:19;;;;;;;20.07;7.37;;;;;;;-7.62;50.09;102884.28;5092071;28;20387;-67
2022/03/09 04:18:45;;;;;;;14.77;7.40;;;;;;;-7.98;50.00;102820.38;5092141;28;20032;-73
2022/03/09 04:21:10;;;;;;;12.80;7.10;;;;;;;-7.65;49.14;102883.41;5092009;28;20028;-70
2022/03/09 04:23:36;;;;;;;12.93;7.47;;;;;;;-7.93;50.01;102849.69;5073964;28;20074;-77
2022/03/09 04:26:02;;;;;;;19.43;7.00;;;;;;;-7.85;50.09;102827.28;5092684;28;20043;-76
2022/03/09 04:28:27;;;;;;;16.10;8.82;;;;;;;-7.59;49.73;102881.69;5091114;28;20038;-76
2022/03/09 04:30:53;;;;;;;18.33;6.07;;;;;;;-7.72;49.46;102879.09;5092857;28;20126;-77
2022/03/09 04:33:19;;;;;;;17.13;8.20;;;;;;;-7.75;49.99;102904.94;5092116;28;20032;-77
2022/03/09 04:35:44;;;;;;;12.70;6.77;;;;;;;-8.04;49.68;102866.91;5091783;28;20024;-70
2022/03/09 04:38:10;;;;;;;14.33;7.57;;;;;;;-7.86;49.82;102903.16;5091807;28;20073;-69
2022/03/09 04:40:35;;;;;;;19.67;7.80;;;;;;;-7.72;49.48;102917.91;5091792;28;20027;-69
2022/03/09 04:43:01;;;;;;;46.03;9.47;;;;;;;-7.82;49.65;102919.56;5090765;28;20051;-71
2022/03/09 04:45:26;;;;;;;17.47;6.43;;;;;;;-7.90;49.58;102916.09;5090444;28;20060;-70
2022/03/09 04:47:51;;;;;;;34.73;8.60;;;;;;;-8.18;50.00;102876.28;5092131;28;20378;-72
2022/03/09 04:50:17;;;;;;;16.23;6.23;;;;;;;-7.79;50.19;102929.94;5090612;28;20344;-70
2022/03/09 04:52:43;;;;;;;17.93;8.50;;;;;;;-7.69;49.82;102929.13;5089521;28;20169;-71
2022/03/09 04:55:08;;;;;;;21.83;8.93;;;;;;;-7.63;49.47;102916.19;5091768;28;20024;-70
2022/03/09 04:57:40;;;;;;;21.57;8.63;;;;;;;-7.82;49.28;102904.91;5098119;28;20032;-70
2022/03/09 05:00:08;;;;;;;25.50;10.00;;;;;;;-7.76;49.21;102929.09;5105452;28;20062;-71
2022/03/09 05:02:34;;;;;;;15.30;7.93;;;;;;;-7.66;49.69;102946.38;5095476;28;20032;-69
2022/03/09 05:04:59;;;;;;;18.60;8.05;;;;;;;-7.59;49.24;102954.16;5095701;28;20058;-69
2022/03/09 05:07:25;;;;;;;28.43;8.73;;;;;;;-7.68;48.95;102942.91;5096220;28;20036;-70
2022/03/09 05:09:52;;;;;;;18.20;7.80;;;;;;;-7.78;48.76;102961.84;5095347;28;20032;-70
2022/03/09 05:12:17;;;;;;;26.17;9.03;;;;;;;-7.96;49.33;102940.19;5095645;28;20034;-70
2022/03/09 05:14:42;;;;;;;29.20;8.17;;;;;;;-7.82;49.43;102971.28;5096953;28;20084;-69
2022/03/09 05:17:12;;;;;;;21.43;7.63;;;;;;;-7.82;49.13;102982.50;5095158;28;20131;-70
2022/03/09 05:19:38;;;;;;;16.02;7.32;;;;;;;-7.82;49.16;102966.13;5100558;28;20039;-70
2022/03/09 05:22:03;;;;;;;18.87;8.33;;;;;;;-7.65;48.66;102985.19;5102224;28;20028;-70
2022/03/09 05:24:29;;;;;;;20.57;9.33;;;;;;;-7.74;48.67;102961.00;5102179;28;20032;-71
2022/03/09 05:26:55;;;;;;;20.00;8.63;;;;;;;-7.67;48.77;102980.88;5104813;28;20028;-68
2022/03/09 05:29:20;;;;;;;31.83;8.93;;;;;;;-7.70;47.96;102986.03;5100447;28;20349;-69
2022/03/09 05:31:46;;;;;;;37.17;11.23;;;;;;;-7.63;48.61;103005.91;5095170;28;20020;-69
2022/03/09 05:34:15;;;;;;;22.13;7.70;;;;;;;-7.75;48.16;103004.13;5093780;28;20024;-70
2022/03/09 05:36:41;;;;;;;17.60;9.90;;;;;;;-7.66;48.51;103017.09;5095544;28;20512;-73
2022/03/09 05:39:07;;;;;;;26.27;10.15;;;;;;;-7.72;48.35;103018.78;5114489;28;20269;-66
2022/03/09 05:41:33;;;;;;;32.93;8.73;;;;;;;-7.78;48.34;103005.81;5095014;28;20031;-67
2022/03/09 05:43:59;;;;;;;17.17;7.13;;;;;;;-7.84;48.31;103001.47;5110212;28;20785;-70
2022/03/09 05:46:26;;;;;;;23.45;8.95;;;;;;;-7.69;48.79;103029.16;5115106;28;20037;-68
2022/03/09 05:48:51;;;;;;;31.80;8.77;;;;;;;-7.69;48.73;103023.97;5114770;27;20531;-68
2022/03/09 05:51:17;;;;;;;25.27;8.93;;;;;;;-7.77;48.63;103021.34;5113559;28;20032;-68
2022/03/09 05:53:42;;;;;;;17.70;7.83;;;;;;;-8.08;49.74;103009.09;5113556;28;20055;-69
2022/03/09 05:56:08;;;;;;;16.93;6.63;;;;;;;-8.00;49.03;103034.13;5115058;28;20035;-68
2022/03/09 05:58:33;;;;;;;22.47;9.27;;;;;;;-7.89;50.05;103026.44;5115385;28;20035;-69
2022/03/09 06:00:59;;;;;;;20.37;8.67;;;;;;;-7.94;50.51;103029.00;5114636;28;20072;-69
2022/03/09 06:03:24;;;;;;;22.23;9.23;;;;;;;-8.12;49.88;103019.38;5114820;28;20027;-68
2022/03/09 06:05:50;;;;;;;23.63;8.53;;;;;;;-7.94;50.49;103054.84;5114312;28;20028;-68
2022/03/09 06:08:16;;;;;;;33.87;9.60;;;;;;;-7.99;49.09;103053.09;5114538;28;20066;-68
2022/03/09 06:10:43;;;;;;;19.67;9.50;;;;;;;-8.03;50.05;103059.97;5114076;28;20028;-68
2022/03/09 06:13:09;;;;;;;94.47;13.27;;;;;;;-8.06;50.19;103061.66;5114808;28;20455;-67
2022/03/09 06:15:35;;;;;;;22.13;8.53;;;;;;;-8.31;50.02;103021.84;5114824;28;20119;-68
2022/03/09 06:18:00;;;;;;;25.37;7.47;;;;;;;-8.06;49.16;103077.19;5114083;28;20108;-68
2022/03/09 06:20:26;;;;;;;20.03;6.67;;;;;;;-8.04;50.29;103078.94;5114651;28;20039;-68
2022/03/09 06:22:52;;;;;;;32.83;8.93;;;;;;;-8.05;49.61;103081.50;5114366;28;20027;-68
2022/03/09 06:25:18;;;;;;;21.15;9.55;;;;;;;-8.05;49.79;103072.03;5114587;28;20027;-69
2022/03/09 06:27:53;;;;;;;26.97;9.33;;;;;;;-7.99;49.57;103076.38;5112166;28;20091;-69
2022/03/09 06:30:19;;;;;;;24.65;8.73;;;;;;;-7.92;49.93;103085.91;5114249;28;20032;-70
2022/03/09 06:32:46;;;;;;;15.68;7.28;;;;;;;-7.96;49.97;103076.41;5114164;28;20028;-68
2022/03/09 06:35:13;;;;;;;38.80;9.07;;;;;;;-7.88;48.62;103096.28;5114407;28;20027;-69
2022/03/09 06:37:39;;;;;;;32.35;7.95;;;;;;;-8.08;48.16;103042.69;5114097;28;20466;-68
2022/03/09 06:40:05;;;;;;;19.48;8.50;;;;;;;-7.70;47.56;103107.63;5112902;28;20219;-68
2022/03/09 06:42:31;;;;;;;15.18;7.32;;;;;;;-7.81;48.07;103089.41;5114242;28;20059;-70
2022/03/09 06:44:57;;;;;;;33.93;9.13;;;;;;;-7.82;48.81;103101.50;5114249;28;20081;-67
2022/03/09 06:47:23;;;;;;;26.40;9.80;;;;;;;-7.68;48.60;103108.50;5114028;28;20462;-69
2022/03/09 06:49:49;;;;;;;22.00;8.05;;;;;;;-7.62;48.86;103108.53;5113821;28;20028;-68
2022/03/09 06:52:15;;;;;;;20.33;7.15;;;;;;;-7.69;48.20;103123.16;5113693;28;20035;-68
2022/03/09 06:54:41;;;;;;;16.50;7.50;;;;;;;-7.84;48.26;103098.03;5113762;28;20035;-68
2022/03/09 06:57:07;;;;;;;17.40;8.40;;;;;;;-7.65;48.71;103119.72;5095491;28;20039;-68
2022/03/09 06:59:32;;;;;;;22.25;7.35;;;;;;;-7.64;47.16;103115.44;5112593;28;20459;-68
2022/03/09 07:01:58;;;;;;;28.77;13.33;;;;;;;-7.52;47.07;103137.09;5112089;28;20070;-69
2022/03/09 07:04:24;;;;;;;16.97;8.13;;;;;;;-7.51;46.63;103127.63;5113759;28;20065;-71
2022/03/09 07:06:55;;;;;;;20.37;7.87;;;;;;;-7.43;47.87;103123.34;5095351;28;20130;-69
2022/03/09 07:09:21;;;;;;;22.25;8.02;;;;;;;-7.14;47.42;103139.03;5113181;28;20028;-69
2022/03/09 07:12:11;;;;;;;22.90;8.73;;;;;;;-7.24;46.78;103126.88;5113417;28;20458;-69
2022/03/09 07:14:37;;;;;;;20.23;9.70;;;;;;;-7.05;46.57;103156.34;5111878;28;20055;-70
2022/03/09 07:17:03;;;;;;;19.67;7.23;;;;;;;-7.39;46.11;103106.09;5112960;28;20305;-70
2022/03/09 07:19:28;;;;;;;29.87;10.40;;;;;;;-7.29;46.61;103133.75;5095239;28;20034;-70
2022/03/09 07:21:54;;;;;;;20.37;6.83;;;;;;;-7.09;46.82;103158.06;5112173;28;20283;-69
2022/03/09 07:24:20;;;;;;;21.10;7.73;;;;;;;-7.02;45.56;103166.72;5112310;28;20477;-69
2022/03/09 07:26:46;;;;;;;14.25;6.43;;;;;;;-7.01;44.74;103160.66;5113191;28;20485;-67
2022/03/09 07:29:12;;;;;;;17.03;6.57;;;;;;;-6.95;44.93;103168.47;5112660;28;20054;-70
2022/03/09 07:31:39;;;;;;;11.10;6.65;;;;;;;-6.84;43.39;103169.41;5111454;28;20031;-69
2022/03/09 07:34:05;;;;;;;23.63;5.93;;;;;;;-6.82;43.25;103162.50;5113190;28;20051;-66
2022/03/09 07:36:31;;;;;;;16.38;7.65;;;;;;;-6.85;43.43;103136.59;5111663;28;20077;-69
2022/03/09 07:38:56;;;;;;;35.83;7.33;;;;;;;-6.57;42.91;103187.66;5112975;28;20098;-68
2022/03/09 07:41:22;;;;;;;11.60;8.40;;;;;;;-6.67;43.65;103162.53;5112745;28;20024;-69
2022/03/09 07:43:48;;;;;;;14.53;6.67;;;;;;;-6.51;43.92;103166.06;5111512;28;20030;-68
2022/03/09 07:46:14;;;;;;;21.45;6.22;;;;;;;-6.31;42.74;103189.47;5111581;28;20036;-69
2022/03/09 07:48:40;;;;;;;16.73;6.73;;;;;;;-6.17;43.06;103195.56;5112789;28;20050;-71
2022/03/09 07:51:05;;;;;;;17.53;7.70;;;;;;;-6.45;43.28;103137.56;5112268;28;20072;-70
2022/03/09 07:53:31;;;;;;;15.03;7.27;;;;;;;-6.46;43.00;103150.53;5111337;28;20032;-68
2022/03/09 07:55:56;;;;;;;11.03;5.67;;;;;;;-6.20;42.95;103186.91;5112664;28;20036;-68
2022/03/09 07:58:22;;;;;;;11.07;5.87;;;;;;;-6.16;41.19;103196.41;5114074;28;20076;-70
2022/03/09 08:00:47;;;;;;;21.27;6.50;;;;;;;-6.21;41.44;103201.59;5117056;28;20024;-70
2022/03/09 08:03:13;;;;;;;25.83;6.90;;;;;;;-6.14;42.19;103195.56;5116881;28;20521;-68
2022/03/09 08:05:39;;;;;;;22.17;6.30;;;;;;;-6.04;41.57;103183.50;5118380;28;20458;-67
2022/03/09 08:08:04;;;;;;;29.03;5.67;;;;;;;-5.89;40.85;103201.63;5119144;28;20038;-70
2022/03/09 08:10:30;;;;;;;17.48;6.28;;;;;;;-5.77;40.25;103218.94;5118648;28;20059;-68
2022/03/09 08:12:56;;;;;;;17.93;5.90;;;;;;;-6.03;39.86;103199.06;5116952;28;20057;-69
2022/03/09 08:15:22;;;;;;;8.63;5.93;;;;;;;-6.08;40.17;103197.28;5112389;28;20031;-68
2022/03/09 08:17:47;;;;;;;19.33;5.32;;;;;;;-5.98;39.85;103201.66;5113544;28;20058;-70
2022/03/09 08:20:13;;;;;;;12.47;4.27;;;;;;;-5.93;39.72;103218.94;5115858;28;20119;-68
2022/03/09 08:22:42;;;;;;;12.60;5.93;;;;;;;-6.08;39.21;103199.88;5114087;28;20470;-67
2022/03/09 08:25:08;;;;;;;13.38;6.68;;;;;;;-5.97;38.75;103214.63;5112371;28;20034;-69
2022/03/09 08:27:34;;;;;;;15.33;5.27;;;;;;;-5.78;38.51;103230.16;5115219;28;20118;-68
2022/03/09 08:29:59;;;;;;;9.80;4.23;;;;;;;-5.72;38.81;103230.19;5116077;28;20020;-68
2022/03/09 08:32:25;;;;;;;15.23;5.07;;;;;;;-5.64;38.58;103229.34;5119242;28;20454;-68
2022/03/09 08:34:50;;;;;;;8.00;3.90;;;;;;;-5.75;38.53;103210.31;5121218;28;20424;-68
2022/03/09 08:37:16;;;;;;;8.03;3.67;;;;;;;-5.62;37.22;103216.34;5120899;28;20112;-69
2022/03/09 08:39:45;;;;;;;18.20;5.43;;;;;;;-5.61;36.75;103228.47;5122510;28;20023;-68
2022/03/09 08:42:10;;;;;;;5.95;3.95;;;;;;;-5.68;36.33;103193.00;5118447;28;20471;-68
2022/03/09 08:44:36;;;;;;;13.90;4.17;;;;;;;-5.26;36.37;103230.19;5116483;28;20166;-68
2022/03/09 08:47:01;;;;;;;8.43;3.63;;;;;;;-5.23;36.34;103224.97;5116577;28;20470;-68
2022/03/09 08:49:29;;;;;;;11.53;4.93;;;;;;;-5.26;35.62;103219.78;5098174;28;20403;-68
2022/03/09 08:51:54;;;;;;;10.65;4.40;;;;;;;-5.20;35.66;103232.81;5116251;28;20042;-68
2022/03/09 08:54:20;;;;;;;7.70;4.60;;;;;;;-5.25;35.52;103221.53;5116313;28;20040;-69
2022/03/09 08:56:45;;;;;;;9.63;4.20;;;;;;;-5.26;36.52;103178.22;5115975;28;20364;-68
2022/03/09 08:59:11;;;;;;;10.60;5.13;;;;;;;-4.67;37.16;103243.06;5116911;28;20375;-68
2022/03/09 09:01:37;;;;;;;7.63;3.50;;;;;;;-4.64;35.87;103237.84;5116662;28;20347;-69
2022/03/09 09:04:03;;;;;;;6.90;3.92;;;;;;;-5.47;35.73;103111.63;5115116;28;20035;-67
2022/03/09 09:06:29;;;;;;;10.80;4.77;;;;;;;-4.94;35.57;103236.19;5116122;28;20049;-68
2022/03/09 09:08:54;;;;;;;10.38;4.30;;;;;;;-5.06;35.93;103221.50;5116339;28;20122;-69
2022/03/09 09:11:20;;;;;;;12.83;4.77;;;;;;;-4.96;36.60;103243.13;5116290;28;20055;-67
2022/03/09 09:14:11;;;;;;;19.10;5.03;;;;;;;-4.94;36.51;103263.91;5116354;28;20046;-68
2022/03/09 09:16:38;;;;;;;6.93;4.03;;;;;;;-5.02;36.45;103256.16;5115891;27;20142;-68
2022/03/09 09:19:05;;;;;;;13.48;5.63;;;;;;;-4.82;36.22;103269.13;5115153;28;20108;-69
2022/03/09 09:21:32;;;;;;;8.98;4.30;;;;;;;-4.78;35.16;103269.09;5114697;28;20373;-69
2022/03/09 09:23:57;;;;;;;10.15;3.65;;;;;;;-4.63;34.80;103278.59;5115574;28;20407;-69
2022/03/09 09:26:23;;;;;;;6.17;3.80;;;;;;;-4.44;35.33;103276.81;5115988;28;20050;-67
2022/03/09 09:28:48;;;;;;;17.13;5.07;;;;;;;-4.45;34.67;103286.34;5116020;28;20053;-68
2022/03/09 09:31:15;;;;;;;7.68;4.53;;;;;;;-4.49;33.86;103283.75;5115906;28;20066;-68
2022/03/09 09:33:40;;;;;;;7.70;4.27;;;;;;;-4.46;34.59;103279.41;5116117;28;20454;-68
2022/03/09 09:36:06;;;;;;;5.57;4.00;;;;;;;-4.41;34.61;103280.25;5115526;28;20035;-68
2022/03/09 09:38:37;;;;;;;9.70;3.40;;;;;;;-4.55;34.78;103279.44;5115757;28;20051;-68
2022/03/09 09:41:03;;;;;;;6.18;3.30;;;;;;;-4.57;34.58;103295.94;5114773;28;20374;-69
2022/03/09 09:43:29;;;;;;;14.23;6.10;;;;;;;-4.56;34.33;103290.72;5115629;28;20408;-67
2022/03/09 09:45:56;;;;;;;11.03;3.60;;;;;;;-4.85;34.31;103231.00;5114743;28;20110;-67
2022/03/09 09:48:22;;;;;;;7.65;4.50;;;;;;;-4.44;34.50;103288.06;5115109;28;20485;-68
2022/03/09 09:50:51;;;;;;;5.30;3.57;;;;;;;-4.50;35.43;103253.41;5115155;28;20031;-68
2022/03/09 09:53:17;;;;;;;5.97;3.85;;;;;;;-4.34;33.94;103280.22;5115037;28;20065;-69
2022/03/09 09:55:43;;;;;;;5.18;3.50;;;;;;;-4.29;34.10;103281.09;5114876;28;20028;-69
2022/03/09 09:58:09;;;;;;;8.02;3.55;;;;;;;-4.26;33.53;103286.28;5114932;28;20379;-68
2022/03/09 10:00:35;;;;;;;8.03;3.30;;;;;;;-4.30;33.22;103281.97;5126737;28;20019;-69
2022/03/09 10:03:02;;;;;;;7.23;3.30;;;;;;;-4.27;33.44;103295.81;5114744;28;20073;-67
2022/03/09 10:05:27;;;;;;;4.18;3.72;;;;;;;-4.19;34.22;103287.97;5114858;28;20027;-67
2022/03/09 10:08:06;;;;;;;9.40;3.43;;;;;;;-4.04;33.72;103293.13;5113377;28;20031;-69
2022/03/09 10:10:35;;;;;;;5.47;3.50;;;;;;;-4.01;34.99;103284.44;5114875;28;20032;-69
2022/03/09 10:13:14;;;;;;;5.10;2.75;;;;;;;-3.69;33.84;103299.88;5114648;28;20033;-68
2022/03/09 10:15:41;;;;;;;8.55;3.55;;;;;;;-3.59;33.78;103293.72;5114439;28;20038;-67
2022/03/09 10:18:18;;;;;;;6.72;3.38;;;;;;;-3.69;33.83;103294.66;5114088;28;20046;-68
2022/03/09 10:20:46;;;;;;;7.32;3.42;;;;;;;-3.67;34.06;103291.19;5114237;28;20035;-68
2022/03/09 10:23:12;;;;;;;7.00;2.95;;;;;;;-3.83;33.38;103277.38;5114484;28;20065;-68
2022/03/09 10:25:38;;;;;;;13.23;4.60;;;;;;;-3.74;33.55;103284.28;5112967;28;20028;-67
2022/03/09 10:28:13;;;;;;;3.53;2.77;;;;;;;-3.53;33.28;103311.91;5114280;28;20615;-67
2022/03/09 10:30:41;;;;;;;5.15;3.05;;;;;;;-3.90;32.80;103252.25;5114130;28;20027;-68
2022/03/09 10:33:08;;;;;;;3.65;3.22;;;;;;;-3.71;33.42;103286.88;5114243;28;20031;-68
2022/03/09 10:35:34;;;;;;;9.40;3.05;;;;;;;-3.38;33.26;103317.03;5114134;28;20027;-68
2022/03/09 10:38:26;;;;;;;3.70;3.30;;;;;;;-3.13;33.92;103315.09;5114003;28;20469;-69
2022/03/09 10:40:55;;;;;;;8.88;4.70;;;;;;;-3.22;32.23;103296.91;5113986;28;20035;-68
2022/03/09 10:43:30;;;;;;;4.68;3.17;;;;;;;-3.37;32.46;103287.50;5114365;28;20027;-69
2022/03/09 10:46:05;;;;;;;7.07;3.58;;;;;;;-3.33;32.98;103309.19;5114327;28;20030;-68
2022/03/09 10:48:55;;;;;;;7.07;3.55;;;;;;;-3.36;33.65;103317.03;5113187;28;20051;-69
2022/03/09 10:51:39;;;;;;;8.23;3.53;;;;;;;-3.49;32.66;103283.22;5114031;28;20036;-67
2022/03/09 10:54:16;;;;;;;6.07;3.47;;;;;;;-3.40;32.11;103312.72;5114045;28;20051;-69
2022/03/09 10:56:43;;;;;;;6.20;4.63;;;;;;;-3.51;33.45;103291.94;5112686;28;20441;-68
2022/03/09 10:59:16;;;;;;;8.10;3.58;;;;;;;-3.27;34.41;103320.41;5113744;28;20035;-69
2022/03/09 11:01:43;;;;;;;13.35;3.83;;;;;;;-3.09;34.20;103319.41;5113690;28;20055;-69
2022/03/09 11:04:18;;;;;;;9.52;4.40;;;;;;;-3.10;33.92;103322.03;5113576;28;20464;-68
2022/03/09 11:06:48;;;;;;;10.95;3.58;;;;;;;-3.06;33.67;103314.19;5113695;28;20073;-68
2022/03/09 11:09:18;;;;;;;10.80;4.93;;;;;;;-3.14;33.95;103308.16;5113758;28;20121;-69
2022/03/09 11:11:46;;;;;;;9.27;4.22;;;;;;;-2.92;34.75;103312.28;5113423;28;20378;-68
2022/03/09 11:14:14;;;;;;;8.95;4.25;;;;;;;-2.87;34.14;103315.75;5113401;28;20385;-68
2022/03/09 11:16:45;;;;;;;7.35;3.60;;;;;;;-2.94;33.17;103323.63;5113662;28;20514;-68
2022/03/09 11:19:12;;;;;;;5.50;3.90;;;;;;;-3.09;31.96;103334.19;5112380;28;20032;-68